sensor_id;sensor_type;location;lat;lon;timestamp;P1;durP1;ratioP1;P2;durP2;ratioP2
51612;SDS011;37694;51.748;14.326;2022-08-19T00:00:25;5.07;;;1.73;;
51612;SDS011;37694;51.748;14.326;2022-08-19T00:02:50;2.20;;;1.48;;
51612;SDS011;37694;51.748;14.326;2022-08-19T00:05:16;3.25;;;1.40;;
51612;SDS011;37694;51.748;14.326;2022-08-19T00:07:43;5.00;;;1.60;;
51612;SDS011;37694;51.748;14.326;2022-08-19T00:10:10;1.48;;;1.33;;
51612;SDS011;37694;51.748;14.326;2022-08-19T00:12:37;2.53;;;1.40;;
51612;SDS011;37694;51.748;14.326;2022-08-19T00:15:04;4.65;;;1.40;;
51612;SDS011;37694;51.748;14.326;2022-08-19T00:17:32;3.35;;;1.25;;
51612;SDS011;37694;51.748;14.326;2022-08-19T00:19:57;3.28;;;1.48;;
51612;SDS011;37694;51.748;14.326;2022-08-19T00:22:23;2.10;;;1.38;;
51612;SDS011;37694;51.748;14.326;2022-08-19T00:24:48;2.90;;;1.35;;
51612;SDS011;37694;51.748;14.326;2022-08-19T00:27:14;2.40;;;1.30;;
51612;SDS011;37694;51.748;14.326;2022-08-19T00:29:41;1.20;;;1.10;;
51612;SDS011;37694;51.748;14.326;2022-08-19T00:32:06;1.02;;;1.02;;
51612;SDS011;37694;51.748;14.326;2022-08-19T00:34:32;3.78;;;1.33;;
51612;SDS011;37694;51.748;14.326;2022-08-19T00:36:58;6.15;;;1.30;;
51612;SDS011;37694;51.748;14.326;2022-08-19T00:39:24;0.95;;;0.93;;
51612;SDS011;37694;51.748;14.326;2022-08-19T00:41:50;3.80;;;1.10;;
51612;SDS011;37694;51.748;14.326;2022-08-19T00:44:23;1.55;;;1.20;;
51612;SDS011;37694;51.748;14.326;2022-08-19T00:46:52;1.20;;;1.17;;
51612;SDS011;37694;51.748;14.326;2022-08-19T00:49:21;1.13;;;1.00;;
51612;SDS011;37694;51.748;14.326;2022-08-19T00:52:00;2.88;;;0.93;;
51612;SDS011;37694;51.748;14.326;2022-08-19T00:54:33;1.00;;;1.00;;
51612;SDS011;37694;51.748;14.326;2022-08-19T00:57:02;1.73;;;1.20;;
51612;SDS011;37694;51.748;14.326;2022-08-19T00:59:31;1.40;;;1.30;;
51612;SDS011;37694;51.748;14.326;2022-08-19T01:01:59;1.10;;;1.00;;
51612;SDS011;37694;51.748;14.326;2022-08-19T01:04:24;1.95;;;1.00;;
51612;SDS011;37694;51.748;14.326;2022-08-19T01:06:50;1.40;;;1.30;;
51612;SDS011;37694;51.748;14.326;2022-08-19T01:09:16;1.15;;;1.15;;
51612;SDS011;37694;51.748;14.326;2022-08-19T01:11:41;1.02;;;1.02;;
51612;SDS011;37694;51.748;14.326;2022-08-19T01:14:09;1.20;;;1.20;;
51612;SDS011;37694;51.748;14.326;2022-08-19T01:16:36;1.50;;;1.40;;
51612;SDS011;37694;51.748;14.326;2022-08-19T01:19:03;1.27;;;1.17;;
51612;SDS011;37694;51.748;14.326;2022-08-19T01:21:58;1.25;;;1.17;;
51612;SDS011;37694;51.748;14.326;2022-08-19T01:24:40;2.72;;;1.00;;
51612;SDS011;37694;51.748;14.326;2022-08-19T01:27:12;2.40;;;1.40;;
51612;SDS011;37694;51.748;14.326;2022-08-19T01:29:39;1.70;;;1.60;;
51612;SDS011;37694;51.748;14.326;2022-08-19T01:32:06;2.03;;;1.50;;
51612;SDS011;37694;51.748;14.326;2022-08-19T01:34:33;3.65;;;1.30;;
51612;SDS011;37694;51.748;14.326;2022-08-19T01:36:59;1.30;;;1.20;;
51612;SDS011;37694;51.748;14.326;2022-08-19T01:39:30;5.13;;;1.25;;
51612;SDS011;37694;51.748;14.326;2022-08-19T01:41:55;3.08;;;1.20;;
51612;SDS011;37694;51.748;14.326;2022-08-19T01:44:21;6.85;;;1.25;;
51612;SDS011;37694;51.748;14.326;2022-08-19T01:46:49;4.07;;;1.27;;
51612;SDS011;37694;51.748;14.326;2022-08-19T01:49:16;2.33;;;1.13;;
51612;SDS011;37694;51.748;14.326;2022-08-19T01:51:44;2.33;;;1.50;;
51612;SDS011;37694;51.748;14.326;2022-08-19T01:54:11;7.28;;;1.20;;
51612;SDS011;37694;51.748;14.326;2022-08-19T01:56:38;1.73;;;1.63;;
51612;SDS011;37694;51.748;14.326;2022-08-19T01:59:05;2.08;;;1.67;;
51612;SDS011;37694;51.748;14.326;2022-08-19T02:01:35;1.48;;;1.38;;
51612;SDS011;37694;51.748;14.326;2022-08-19T02:04:01;1.30;;;1.20;;
51612;SDS011;37694;51.748;14.326;2022-08-19T02:06:27;2.25;;;1.30;;
51612;SDS011;37694;51.748;14.326;2022-08-19T02:08:53;1.58;;;1.48;;
51612;SDS011;37694;51.748;14.326;2022-08-19T02:11:22;1.70;;;1.20;;
51612;SDS011;37694;51.748;14.326;2022-08-19T02:13:53;1.25;;;1.20;;
51612;SDS011;37694;51.748;14.326;2022-08-19T02:16:20;1.48;;;1.20;;
51612;SDS011;37694;51.748;14.326;2022-08-19T02:18:46;1.30;;;1.30;;
51612;SDS011;37694;51.748;14.326;2022-08-19T02:21:16;10.55;;;2.00;;
51612;SDS011;37694;51.748;14.326;2022-08-19T02:23:43;3.40;;;1.40;;
51612;SDS011;37694;51.748;14.326;2022-08-19T02:26:09;20.63;;;1.75;;
51612;SDS011;37694;51.748;14.326;2022-08-19T02:28:35;4.80;;;1.30;;
51612;SDS011;37694;51.748;14.326;2022-08-19T02:31:02;3.17;;;1.15;;
51612;SDS011;37694;51.748;14.326;2022-08-19T02:33:28;1.33;;;1.23;;
51612;SDS011;37694;51.748;14.326;2022-08-19T02:35:53;4.03;;;1.40;;
51612;SDS011;37694;51.748;14.326;2022-08-19T02:38:19;3.63;;;1.27;;
51612;SDS011;37694;51.748;14.326;2022-08-19T02:40:55;2.35;;;1.20;;
51612;SDS011;37694;51.748;14.326;2022-08-19T02:43:21;1.95;;;1.50;;
51612;SDS011;37694;51.748;14.326;2022-08-19T02:45:48;6.60;;;1.23;;
51612;SDS011;37694;51.748;14.326;2022-08-19T02:48:24;1.45;;;1.23;;
51612;SDS011;37694;51.748;14.326;2022-08-19T02:50:51;1.65;;;1.30;;
51612;SDS011;37694;51.748;14.326;2022-08-19T02:53:20;1.58;;;1.10;;
51612;SDS011;37694;51.748;14.326;2022-08-19T02:55:47;3.22;;;1.10;;
51612;SDS011;37694;51.748;14.326;2022-08-19T02:58:13;1.73;;;1.20;;
51612;SDS011;37694;51.748;14.326;2022-08-19T03:00:47;4.18;;;1.50;;
51612;SDS011;37694;51.748;14.326;2022-08-19T03:03:17;2.35;;;1.48;;
51612;SDS011;37694;51.748;14.326;2022-08-19T03:05:43;2.70;;;1.05;;
51612;SDS011;37694;51.748;14.326;2022-08-19T03:08:09;3.92;;;1.17;;
51612;SDS011;37694;51.748;14.326;2022-08-19T03:10:47;2.00;;;1.20;;
51612;SDS011;37694;51.748;14.326;2022-08-19T03:13:13;3.33;;;1.20;;
51612;SDS011;37694;51.748;14.326;2022-08-19T03:15:45;1.70;;;1.60;;
51612;SDS011;37694;51.748;14.326;2022-08-19T03:18:12;1.27;;;1.17;;
51612;SDS011;37694;51.748;14.326;2022-08-19T03:20:40;5.10;;;1.35;;
51612;SDS011;37694;51.748;14.326;2022-08-19T03:23:09;2.92;;;1.20;;
51612;SDS011;37694;51.748;14.326;2022-08-19T03:25:36;5.07;;;1.45;;
51612;SDS011;37694;51.748;14.326;2022-08-19T03:28:05;7.72;;;1.25;;
51612;SDS011;37694;51.748;14.326;2022-08-19T03:30:32;3.67;;;1.10;;
51612;SDS011;37694;51.748;14.326;2022-08-19T03:32:58;2.15;;;1.10;;
51612;SDS011;37694;51.748;14.326;2022-08-19T03:35:23;1.00;;;1.00;;
51612;SDS011;37694;51.748;14.326;2022-08-19T03:37:49;1.63;;;1.13;;
51612;SDS011;37694;51.748;14.326;2022-08-19T03:40:15;2.22;;;1.10;;
51612;SDS011;37694;51.748;14.326;2022-08-19T03:42:41;1.25;;;1.13;;
51612;SDS011;37694;51.748;14.326;2022-08-19T03:45:07;2.90;;;1.25;;
51612;SDS011;37694;51.748;14.326;2022-08-19T03:47:33;1.30;;;1.20;;
51612;SDS011;37694;51.748;14.326;2022-08-19T03:49:59;1.10;;;1.08;;
51612;SDS011;37694;51.748;14.326;2022-08-19T03:52:24;1.02;;;1.02;;
51612;SDS011;37694;51.748;14.326;2022-08-19T03:54:50;1.27;;;1.17;;
51612;SDS011;37694;51.748;14.326;2022-08-19T03:57:16;1.00;;;1.00;;
51612;SDS011;37694;51.748;14.326;2022-08-19T03:59:42;2.00;;;1.17;;
51612;SDS011;37694;51.748;14.326;2022-08-19T04:02:09;2.25;;;1.00;;
51612;SDS011;37694;51.748;14.326;2022-08-19T04:04:37;1.20;;;1.15;;
51612;SDS011;37694;51.748;14.326;2022-08-19T04:07:04;1.23;;;1.13;;
51612;SDS011;37694;51.748;14.326;2022-08-19T04:09:31;1.38;;;1.00;;
51612;SDS011;37694;51.748;14.326;2022-08-19T04:11:58;2.67;;;1.30;;
51612;SDS011;37694;51.748;14.326;2022-08-19T04:14:28;3.70;;;1.00;;
51612;SDS011;37694;51.748;14.326;2022-08-19T04:16:59;1.00;;;1.00;;
51612;SDS011;37694;51.748;14.326;2022-08-19T04:19:25;2.00;;;1.08;;
51612;SDS011;37694;51.748;14.326;2022-08-19T04:21:52;1.23;;;1.13;;
51612;SDS011;37694;51.748;14.326;2022-08-19T04:24:19;2.70;;;1.33;;
51612;SDS011;37694;51.748;14.326;2022-08-19T04:26:45;1.45;;;1.30;;
51612;SDS011;37694;51.748;14.326;2022-08-19T04:29:13;3.70;;;1.17;;
51612;SDS011;37694;51.748;14.326;2022-08-19T04:31:42;2.42;;;1.23;;
51612;SDS011;37694;51.748;14.326;2022-08-19T04:34:10;2.50;;;1.10;;
51612;SDS011;37694;51.748;14.326;2022-08-19T04:36:38;7.03;;;1.25;;
51612;SDS011;37694;51.748;14.326;2022-08-19T04:39:07;1.67;;;1.38;;
51612;SDS011;37694;51.748;14.326;2022-08-19T04:41:35;11.13;;;2.85;;
51612;SDS011;37694;51.748;14.326;2022-08-19T04:44:20;3.72;;;1.20;;
51612;SDS011;37694;51.748;14.326;2022-08-19T04:46:47;4.15;;;1.10;;
51612;SDS011;37694;51.748;14.326;2022-08-19T04:49:14;2.80;;;1.02;;
51612;SDS011;37694;51.748;14.326;2022-08-19T04:51:42;1.13;;;1.08;;
51612;SDS011;37694;51.748;14.326;2022-08-19T04:54:09;3.85;;;1.30;;
51612;SDS011;37694;51.748;14.326;2022-08-19T04:56:35;1.30;;;1.20;;
51612;SDS011;37694;51.748;14.326;2022-08-19T04:59:01;0.98;;;0.98;;
51612;SDS011;37694;51.748;14.326;2022-08-19T05:01:31;2.33;;;1.00;;
51612;SDS011;37694;51.748;14.326;2022-08-19T05:04:00;2.70;;;1.20;;
51612;SDS011;37694;51.748;14.326;2022-08-19T05:06:29;2.05;;;1.17;;
51612;SDS011;37694;51.748;14.326;2022-08-19T05:08:57;1.70;;;1.30;;
51612;SDS011;37694;51.748;14.326;2022-08-19T05:11:24;5.05;;;1.55;;
51612;SDS011;37694;51.748;14.326;2022-08-19T05:13:53;2.20;;;1.20;;
51612;SDS011;37694;51.748;14.326;2022-08-19T05:16:20;2.28;;;1.00;;
51612;SDS011;37694;51.748;14.326;2022-08-19T05:18:46;2.10;;;1.10;;
51612;SDS011;37694;51.748;14.326;2022-08-19T05:21:31;1.20;;;1.10;;
51612;SDS011;37694;51.748;14.326;2022-08-19T05:24:17;4.40;;;1.30;;
51612;SDS011;37694;51.748;14.326;2022-08-19T05:26:45;5.50;;;1.73;;
51612;SDS011;37694;51.748;14.326;2022-08-19T05:29:12;6.18;;;1.20;;
51612;SDS011;37694;51.748;14.326;2022-08-19T05:31:40;7.82;;;1.35;;
51612;SDS011;37694;51.748;14.326;2022-08-19T05:34:06;5.45;;;1.70;;
51612;SDS011;37694;51.748;14.326;2022-08-19T05:36:38;4.63;;;1.63;;
51612;SDS011;37694;51.748;14.326;2022-08-19T05:39:10;4.35;;;2.13;;
51612;SDS011;37694;51.748;14.326;2022-08-19T05:41:42;9.30;;;2.10;;
51612;SDS011;37694;51.748;14.326;2022-08-19T05:44:08;10.70;;;3.42;;
51612;SDS011;37694;51.748;14.326;2022-08-19T05:46:35;10.40;;;3.65;;
51612;SDS011;37694;51.748;14.326;2022-08-19T05:49:02;15.98;;;6.00;;
51612;SDS011;37694;51.748;14.326;2022-08-19T05:51:29;37.55;;;9.65;;
51612;SDS011;37694;51.748;14.326;2022-08-19T05:53:55;18.40;;;4.28;;
51612;SDS011;37694;51.748;14.326;2022-08-19T05:56:21;46.00;;;9.80;;
51612;SDS011;37694;51.748;14.326;2022-08-19T05:58:46;149.70;;;21.63;;
51612;SDS011;37694;51.748;14.326;2022-08-19T06:01:13;98.75;;;14.80;;
51612;SDS011;37694;51.748;14.326;2022-08-19T06:03:41;112.13;;;17.75;;
51612;SDS011;37694;51.748;14.326;2022-08-19T06:06:08;193.57;;;21.75;;
51612;SDS011;37694;51.748;14.326;2022-08-19T06:08:36;190.85;;;20.85;;
51612;SDS011;37694;51.748;14.326;2022-08-19T06:11:17;164.68;;;19.70;;
51612;SDS011;37694;51.748;14.326;2022-08-19T06:13:45;150.23;;;16.70;;
51612;SDS011;37694;51.748;14.326;2022-08-19T06:16:15;117.25;;;13.52;;
51612;SDS011;37694;51.748;14.326;2022-08-19T06:18:46;84.93;;;12.32;;
51612;SDS011;37694;51.748;14.326;2022-08-19T06:21:11;89.53;;;13.70;;
51612;SDS011;37694;51.748;14.326;2022-08-19T06:23:37;61.40;;;10.13;;
51612;SDS011;37694;51.748;14.326;2022-08-19T06:26:04;49.50;;;8.57;;
51612;SDS011;37694;51.748;14.326;2022-08-19T06:28:30;58.83;;;10.23;;
51612;SDS011;37694;51.748;14.326;2022-08-19T06:30:55;66.20;;;8.27;;
51612;SDS011;37694;51.748;14.326;2022-08-19T06:33:21;36.83;;;6.82;;
51612;SDS011;37694;51.748;14.326;2022-08-19T06:35:46;32.00;;;5.70;;
51612;SDS011;37694;51.748;14.326;2022-08-19T06:38:12;45.35;;;7.55;;
51612;SDS011;37694;51.748;14.326;2022-08-19T06:40:37;30.88;;;5.90;;
51612;SDS011;37694;51.748;14.326;2022-08-19T06:43:03;41.45;;;5.78;;
51612;SDS011;37694;51.748;14.326;2022-08-19T06:45:29;21.00;;;5.65;;
51612;SDS011;37694;51.748;14.326;2022-08-19T06:47:55;23.65;;;5.80;;
51612;SDS011;37694;51.748;14.326;2022-08-19T06:50:21;16.38;;;4.60;;
51612;SDS011;37694;51.748;14.326;2022-08-19T06:52:48;17.25;;;4.13;;
51612;SDS011;37694;51.748;14.326;2022-08-19T06:55:14;19.20;;;4.00;;
51612;SDS011;37694;51.748;14.326;2022-08-19T06:57:40;16.50;;;4.57;;
51612;SDS011;37694;51.748;14.326;2022-08-19T07:00:07;19.90;;;4.70;;
51612;SDS011;37694;51.748;14.326;2022-08-19T07:02:39;8.80;;;3.15;;
51612;SDS011;37694;51.748;14.326;2022-08-19T07:05:08;18.58;;;4.15;;
51612;SDS011;37694;51.748;14.326;2022-08-19T07:07:34;11.65;;;3.15;;
51612;SDS011;37694;51.748;14.326;2022-08-19T07:10:00;9.63;;;3.67;;
51612;SDS011;37694;51.748;14.326;2022-08-19T07:12:28;10.02;;;3.40;;
51612;SDS011;37694;51.748;14.326;2022-08-19T07:14:57;7.50;;;2.75;;
51612;SDS011;37694;51.748;14.326;2022-08-19T07:17:23;12.85;;;3.00;;
51612;SDS011;37694;51.748;14.326;2022-08-19T07:19:49;9.00;;;2.65;;
51612;SDS011;37694;51.748;14.326;2022-08-19T07:22:15;6.10;;;2.72;;
51612;SDS011;37694;51.748;14.326;2022-08-19T07:24:41;5.07;;;2.00;;
51612;SDS011;37694;51.748;14.326;2022-08-19T07:27:06;8.00;;;2.40;;
51612;SDS011;37694;51.748;14.326;2022-08-19T07:29:33;6.63;;;2.58;;
51612;SDS011;37694;51.748;14.326;2022-08-19T07:32:01;4.60;;;2.20;;
51612;SDS011;37694;51.748;14.326;2022-08-19T07:34:28;7.68;;;2.33;;
51612;SDS011;37694;51.748;14.326;2022-08-19T07:36:55;2.78;;;1.95;;
51612;SDS011;37694;51.748;14.326;2022-08-19T07:39:26;7.57;;;1.80;;
51612;SDS011;37694;51.748;14.326;2022-08-19T07:41:55;3.80;;;1.88;;
51612;SDS011;37694;51.748;14.326;2022-08-19T07:44:21;3.55;;;2.05;;
51612;SDS011;37694;51.748;14.326;2022-08-19T07:46:48;5.57;;;2.25;;
51612;SDS011;37694;51.748;14.326;2022-08-19T07:49:16;3.13;;;1.73;;
51612;SDS011;37694;51.748;14.326;2022-08-19T07:51:54;5.47;;;1.77;;
51612;SDS011;37694;51.748;14.326;2022-08-19T07:54:26;4.82;;;1.95;;
51612;SDS011;37694;51.748;14.326;2022-08-19T07:56:53;2.53;;;1.60;;
51612;SDS011;37694;51.748;14.326;2022-08-19T07:59:19;5.20;;;1.77;;
51612;SDS011;37694;51.748;14.326;2022-08-19T08:01:46;5.50;;;1.85;;
51612;SDS011;37694;51.748;14.326;2022-08-19T08:04:13;2.08;;;1.65;;
51612;SDS011;37694;51.748;14.326;2022-08-19T08:06:58;2.20;;;1.60;;
51612;SDS011;37694;51.748;14.326;2022-08-19T08:09:43;2.13;;;1.70;;
51612;SDS011;37694;51.748;14.326;2022-08-19T08:12:14;2.25;;;1.52;;
51612;SDS011;37694;51.748;14.326;2022-08-19T08:17:11;6.05;;;2.10;;
51612;SDS011;37694;51.748;14.326;2022-08-19T08:19:37;2.47;;;1.65;;
51612;SDS011;37694;51.748;14.326;2022-08-19T08:22:05;3.60;;;1.65;;
51612;SDS011;37694;51.748;14.326;2022-08-19T08:24:31;1.33;;;1.15;;
51612;SDS011;37694;51.748;14.326;2022-08-19T08:26:59;2.10;;;1.40;;
51612;SDS011;37694;51.748;14.326;2022-08-19T08:29:26;1.48;;;1.38;;
51612;SDS011;37694;51.748;14.326;2022-08-19T08:31:52;1.75;;;1.60;;
51612;SDS011;37694;51.748;14.326;2022-08-19T08:34:19;1.70;;;1.52;;
51612;SDS011;37694;51.748;14.326;2022-08-19T08:36:45;2.47;;;1.60;;
51612;SDS011;37694;51.748;14.326;2022-08-19T08:39:12;2.20;;;1.05;;
51612;SDS011;37694;51.748;14.326;2022-08-19T08:41:55;4.30;;;1.50;;
51612;SDS011;37694;51.748;14.326;2022-08-19T08:47:22;2.45;;;1.20;;
51612;SDS011;37694;51.748;14.326;2022-08-19T08:49:54;1.52;;;1.42;;
51612;SDS011;37694;51.748;14.326;2022-08-19T08:52:25;3.30;;;1.13;;
51612;SDS011;37694;51.748;14.326;2022-08-19T08:54:54;2.42;;;1.20;;
51612;SDS011;37694;51.748;14.326;2022-08-19T08:57:27;2.55;;;1.38;;
51612;SDS011;37694;51.748;14.326;2022-08-19T08:59:57;1.23;;;1.20;;
51612;SDS011;37694;51.748;14.326;2022-08-19T09:02:28;1.00;;;0.98;;
51612;SDS011;37694;51.748;14.326;2022-08-19T09:04:54;2.05;;;1.30;;
51612;SDS011;37694;51.748;14.326;2022-08-19T09:09:54;1.17;;;1.08;;
51612;SDS011;37694;51.748;14.326;2022-08-19T09:12:38;1.58;;;1.48;;
51612;SDS011;37694;51.748;14.326;2022-08-19T09:15:09;1.35;;;1.25;;
51612;SDS011;37694;51.748;14.326;2022-08-19T09:17:37;1.52;;;1.23;;
51612;SDS011;37694;51.748;14.326;2022-08-19T09:22:32;1.73;;;1.27;;
51612;SDS011;37694;51.748;14.326;2022-08-19T09:24:58;1.20;;;1.20;;
51612;SDS011;37694;51.748;14.326;2022-08-19T09:27:25;2.55;;;1.30;;
51612;SDS011;37694;51.748;14.326;2022-08-19T09:29:52;2.25;;;1.10;;
51612;SDS011;37694;51.748;14.326;2022-08-19T09:32:19;1.15;;;1.15;;
51612;SDS011;37694;51.748;14.326;2022-08-19T09:34:45;2.75;;;1.38;;
51612;SDS011;37694;51.748;14.326;2022-08-19T09:37:11;1.27;;;1.13;;
51612;SDS011;37694;51.748;14.326;2022-08-19T09:39:38;2.33;;;1.88;;
51612;SDS011;37694;51.748;14.326;2022-08-19T09:42:06;1.13;;;1.13;;
51612;SDS011;37694;51.748;14.326;2022-08-19T09:44:36;0.80;;;0.80;;
51612;SDS011;37694;51.748;14.326;2022-08-19T09:47:05;1.42;;;1.33;;
51612;SDS011;37694;51.748;14.326;2022-08-19T09:49:32;1.33;;;1.15;;
51612;SDS011;37694;51.748;14.326;2022-08-19T09:51:58;1.30;;;1.20;;
51612;SDS011;37694;51.748;14.326;2022-08-19T09:54:24;1.30;;;1.13;;
51612;SDS011;37694;51.748;14.326;2022-08-19T09:56:50;1.45;;;1.30;;
51612;SDS011;37694;51.748;14.326;2022-08-19T09:59:17;1.13;;;1.13;;
51612;SDS011;37694;51.748;14.326;2022-08-19T10:01:43;1.10;;;1.10;;
51612;SDS011;37694;51.748;14.326;2022-08-19T10:04:08;0.90;;;0.90;;
51612;SDS011;37694;51.748;14.326;2022-08-19T10:06:35;1.98;;;1.00;;
51612;SDS011;37694;51.748;14.326;2022-08-19T10:09:04;1.10;;;1.10;;
51612;SDS011;37694;51.748;14.326;2022-08-19T10:11:32;1.20;;;1.15;;
51612;SDS011;37694;51.748;14.326;2022-08-19T10:14:00;1.13;;;1.13;;
51612;SDS011;37694;51.748;14.326;2022-08-19T10:16:26;1.00;;;1.00;;
51612;SDS011;37694;51.748;14.326;2022-08-19T10:18:52;0.90;;;0.90;;
51612;SDS011;37694;51.748;14.326;2022-08-19T10:21:19;0.90;;;0.90;;
51612;SDS011;37694;51.748;14.326;2022-08-19T10:23:58;1.80;;;1.30;;
51612;SDS011;37694;51.748;14.326;2022-08-19T10:26:26;1.00;;;1.00;;
51612;SDS011;37694;51.748;14.326;2022-08-19T10:28:54;0.80;;;0.80;;
51612;SDS011;37694;51.748;14.326;2022-08-19T10:31:21;1.17;;;1.08;;
51612;SDS011;37694;51.748;14.326;2022-08-19T10:33:49;0.80;;;0.80;;
51612;SDS011;37694;51.748;14.326;2022-08-19T10:36:20;0.93;;;0.93;;
51612;SDS011;37694;51.748;14.326;2022-08-19T10:38:49;1.02;;;1.02;;
51612;SDS011;37694;51.748;14.326;2022-08-19T10:41:17;0.93;;;0.82;;
51612;SDS011;37694;51.748;14.326;2022-08-19T10:43:49;0.88;;;0.88;;
51612;SDS011;37694;51.748;14.326;2022-08-19T10:46:17;0.70;;;0.70;;
51612;SDS011;37694;51.748;14.326;2022-08-19T10:48:44;1.00;;;1.00;;
51612;SDS011;37694;51.748;14.326;2022-08-19T10:51:10;1.05;;;0.93;;
51612;SDS011;37694;51.748;14.326;2022-08-19T10:53:55;1.13;;;1.02;;
51612;SDS011;37694;51.748;14.326;2022-08-19T10:56:21;1.02;;;1.02;;
51612;SDS011;37694;51.748;14.326;2022-08-19T10:59:06;0.80;;;0.80;;
51612;SDS011;37694;51.748;14.326;2022-08-19T11:01:32;1.08;;;1.08;;
51612;SDS011;37694;51.748;14.326;2022-08-19T11:04:03;1.00;;;1.00;;
51612;SDS011;37694;51.748;14.326;2022-08-19T11:06:31;1.00;;;1.00;;
51612;SDS011;37694;51.748;14.326;2022-08-19T11:08:57;1.08;;;1.08;;
51612;SDS011;37694;51.748;14.326;2022-08-19T11:11:25;0.80;;;0.80;;
51612;SDS011;37694;51.748;14.326;2022-08-19T11:13:51;1.10;;;1.10;;
51612;SDS011;37694;51.748;14.326;2022-08-19T11:16:22;0.80;;;0.80;;
51612;SDS011;37694;51.748;14.326;2022-08-19T11:18:51;0.85;;;0.85;;
51612;SDS011;37694;51.748;14.326;2022-08-19T11:23:45;0.98;;;0.85;;
51612;SDS011;37694;51.748;14.326;2022-08-19T11:26:12;0.73;;;0.73;;
51612;SDS011;37694;51.748;14.326;2022-08-19T11:28:39;0.90;;;0.90;;
51612;SDS011;37694;51.748;14.326;2022-08-19T11:31:12;0.98;;;0.98;;
51612;SDS011;37694;51.748;14.326;2022-08-19T11:36:04;0.80;;;0.80;;
51612;SDS011;37694;51.748;14.326;2022-08-19T11:38:30;0.70;;;0.70;;
51612;SDS011;37694;51.748;14.326;2022-08-19T11:40:57;0.60;;;0.60;;
51612;SDS011;37694;51.748;14.326;2022-08-19T11:43:24;0.85;;;0.85;;
51612;SDS011;37694;51.748;14.326;2022-08-19T11:45:51;0.80;;;0.80;;
51612;SDS011;37694;51.748;14.326;2022-08-19T11:48:20;0.60;;;0.60;;
51612;SDS011;37694;51.748;14.326;2022-08-19T11:50:53;1.10;;;1.10;;
51612;SDS011;37694;51.748;14.326;2022-08-19T11:53:21;0.90;;;0.90;;
51612;SDS011;37694;51.748;14.326;2022-08-19T11:55:47;0.85;;;0.85;;
51612;SDS011;37694;51.748;14.326;2022-08-19T11:58:15;0.90;;;0.90;;
51612;SDS011;37694;51.748;14.326;2022-08-19T12:00:42;0.98;;;0.93;;
51612;SDS011;37694;51.748;14.326;2022-08-19T12:03:10;1.10;;;1.10;;
51612;SDS011;37694;51.748;14.326;2022-08-19T12:05:37;0.73;;;0.73;;
51612;SDS011;37694;51.748;14.326;2022-08-19T12:08:04;1.00;;;1.00;;
51612;SDS011;37694;51.748;14.326;2022-08-19T12:10:30;0.90;;;0.90;;
51612;SDS011;37694;51.748;14.326;2022-08-19T12:12:55;1.00;;;1.00;;
51612;SDS011;37694;51.748;14.326;2022-08-19T12:15:21;1.10;;;0.90;;
51612;SDS011;37694;51.748;14.326;2022-08-19T12:17:47;0.80;;;0.80;;
51612;SDS011;37694;51.748;14.326;2022-08-19T12:20:13;0.90;;;0.90;;
51612;SDS011;37694;51.748;14.326;2022-08-19T12:22:41;0.80;;;0.80;;
51612;SDS011;37694;51.748;14.326;2022-08-19T12:25:07;0.77;;;0.77;;
51612;SDS011;37694;51.748;14.326;2022-08-19T12:27:34;0.80;;;0.80;;
51612;SDS011;37694;51.748;14.326;2022-08-19T12:30:01;1.00;;;1.00;;
51612;SDS011;37694;51.748;14.326;2022-08-19T12:32:27;0.88;;;0.88;;
51612;SDS011;37694;51.748;14.326;2022-08-19T12:34:53;0.95;;;0.95;;
51612;SDS011;37694;51.748;14.326;2022-08-19T12:37:19;0.80;;;0.80;;
51612;SDS011;37694;51.748;14.326;2022-08-19T12:39:45;1.13;;;1.13;;
51612;SDS011;37694;51.748;14.326;2022-08-19T12:42:11;0.98;;;0.90;;
51612;SDS011;37694;51.748;14.326;2022-08-19T12:44:38;0.90;;;0.90;;
51612;SDS011;37694;51.748;14.326;2022-08-19T12:47:05;0.98;;;0.98;;
51612;SDS011;37694;51.748;14.326;2022-08-19T12:49:32;1.13;;;1.13;;
51612;SDS011;37694;51.748;14.326;2022-08-19T12:52:01;0.98;;;0.98;;
51612;SDS011;37694;51.748;14.326;2022-08-19T12:54:31;1.10;;;1.10;;
51612;SDS011;37694;51.748;14.326;2022-08-19T12:56:57;1.38;;;1.38;;
51612;SDS011;37694;51.748;14.326;2022-08-19T12:59:24;1.10;;;1.10;;
51612;SDS011;37694;51.748;14.326;2022-08-19T13:01:50;0.93;;;0.93;;
51612;SDS011;37694;51.748;14.326;2022-08-19T13:04:16;1.20;;;1.10;;
51612;SDS011;37694;51.748;14.326;2022-08-19T13:06:41;1.10;;;1.10;;
51612;SDS011;37694;51.748;14.326;2022-08-19T13:09:08;1.23;;;1.10;;
51612;SDS011;37694;51.748;14.326;2022-08-19T13:11:33;1.50;;;1.40;;
51612;SDS011;37694;51.748;14.326;2022-08-19T13:14:00;1.17;;;1.08;;
51612;SDS011;37694;51.748;14.326;2022-08-19T13:16:27;1.40;;;1.35;;
51612;SDS011;37694;51.748;14.326;2022-08-19T13:18:53;1.33;;;1.23;;
51612;SDS011;37694;51.748;14.326;2022-08-19T13:21:21;1.38;;;1.27;;
51612;SDS011;37694;51.748;14.326;2022-08-19T13:23:49;1.23;;;1.23;;
51612;SDS011;37694;51.748;14.326;2022-08-19T13:26:15;1.30;;;1.30;;
51612;SDS011;37694;51.748;14.326;2022-08-19T13:28:41;1.25;;;1.25;;
51612;SDS011;37694;51.748;14.326;2022-08-19T13:31:27;2.10;;;1.35;;
51612;SDS011;37694;51.748;14.326;2022-08-19T13:34:13;1.42;;;1.42;;
51612;SDS011;37694;51.748;14.326;2022-08-19T13:36:40;1.52;;;1.42;;
51612;SDS011;37694;51.748;14.326;2022-08-19T13:39:06;1.48;;;1.40;;
51612;SDS011;37694;51.748;14.326;2022-08-19T13:41:33;1.65;;;1.55;;
51612;SDS011;37694;51.748;14.326;2022-08-19T13:43:59;1.15;;;1.15;;
51612;SDS011;37694;51.748;14.326;2022-08-19T13:46:26;1.58;;;1.48;;
51612;SDS011;37694;51.748;14.326;2022-08-19T13:48:55;1.10;;;1.10;;
51612;SDS011;37694;51.748;14.326;2022-08-19T13:51:21;1.38;;;1.27;;
51612;SDS011;37694;51.748;14.326;2022-08-19T13:53:47;1.45;;;1.35;;
51612;SDS011;37694;51.748;14.326;2022-08-19T13:56:15;7.22;;;1.88;;
51612;SDS011;37694;51.748;14.326;2022-08-19T13:58:42;3.53;;;2.97;;
51612;SDS011;37694;51.748;14.326;2022-08-19T14:01:08;3.88;;;2.17;;
51612;SDS011;37694;51.748;14.326;2022-08-19T14:03:35;4.10;;;2.30;;
51612;SDS011;37694;51.748;14.326;2022-08-19T14:06:01;18.00;;;4.43;;
51612;SDS011;37694;51.748;14.326;2022-08-19T14:08:27;12.80;;;3.00;;
51612;SDS011;37694;51.748;14.326;2022-08-19T14:10:54;8.68;;;3.00;;
51612;SDS011;37694;51.748;14.326;2022-08-19T14:13:21;6.35;;;2.85;;
51612;SDS011;37694;51.748;14.326;2022-08-19T14:15:48;19.00;;;3.53;;
51612;SDS011;37694;51.748;14.326;2022-08-19T14:18:15;18.98;;;3.70;;
51612;SDS011;37694;51.748;14.326;2022-08-19T14:20:42;17.30;;;4.20;;
51612;SDS011;37694;51.748;14.326;2022-08-19T14:23:08;12.60;;;4.13;;
51612;SDS011;37694;51.748;14.326;2022-08-19T14:25:34;8.88;;;4.05;;
51612;SDS011;37694;51.748;14.326;2022-08-19T14:28:00;7.03;;;3.53;;
51612;SDS011;37694;51.748;14.326;2022-08-19T14:30:29;18.92;;;3.90;;
51612;SDS011;37694;51.748;14.326;2022-08-19T14:32:57;7.30;;;3.67;;
51612;SDS011;37694;51.748;14.326;2022-08-19T14:35:25;12.20;;;4.53;;
51612;SDS011;37694;51.748;14.326;2022-08-19T14:37:53;11.07;;;3.28;;
51612;SDS011;37694;51.748;14.326;2022-08-19T14:40:20;14.27;;;3.80;;
51612;SDS011;37694;51.748;14.326;2022-08-19T14:42:50;12.07;;;5.10;;
51612;SDS011;37694;51.748;14.326;2022-08-19T14:45:17;13.32;;;4.13;;
51612;SDS011;37694;51.748;14.326;2022-08-19T14:47:42;16.75;;;5.00;;
51612;SDS011;37694;51.748;14.326;2022-08-19T14:50:09;9.10;;;3.83;;